sensor_id;sensor_type;location;lat;lon;timestamp;P1;durP1;ratioP1;P2;durP2;ratioP2
65759;SDS011;52496;51.082;5.066;2023-04-15T00:02:18;7.20;;;4.13;;
65759;SDS011;52496;51.082;5.066;2023-04-15T00:04:49;10.55;;;5.90;;
65759;SDS011;52496;51.082;5.066;2023-04-15T00:07:19;8.43;;;5.80;;
65759;SDS011;52496;51.082;5.066;2023-04-15T00:09:50;13.50;;;7.03;;
65759;SDS011;52496;51.082;5.066;2023-04-15T00:12:24;10.30;;;6.05;;
65759;SDS011;52496;51.082;5.066;2023-04-15T00:14:56;11.93;;;6.30;;
65759;SDS011;52496;51.082;5.066;2023-04-15T00:17:28;9.48;;;6.20;;
65759;SDS011;52496;51.082;5.066;2023-04-15T00:19:59;9.73;;;6.88;;
65759;SDS011;52496;51.082;5.066;2023-04-15T00:22:29;11.23;;;6.75;;
65759;SDS011;52496;51.082;5.066;2023-04-15T00:25:01;10.15;;;5.63;;
65759;SDS011;52496;51.082;5.066;2023-04-15T00:27:32;9.52;;;5.82;;
65759;SDS011;52496;51.082;5.066;2023-04-15T00:30:03;12.65;;;4.93;;
65759;SDS011;52496;51.082;5.066;2023-04-15T00:32:34;8.77;;;4.68;;
65759;SDS011;52496;51.082;5.066;2023-04-15T00:35:04;10.13;;;4.68;;
65759;SDS011;52496;51.082;5.066;2023-04-15T00:37:35;8.63;;;5.20;;
65759;SDS011;52496;51.082;5.066;2023-04-15T00:40:06;10.25;;;4.95;;
65759;SDS011;52496;51.082;5.066;2023-04-15T00:42:46;14.20;;;7.60;;
65759;SDS011;52496;51.082;5.066;2023-04-15T00:45:17;10.90;;;7.15;;
65759;SDS011;52496;51.082;5.066;2023-04-15T00:47:48;13.07;;;6.75;;
65759;SDS011;52496;51.082;5.066;2023-04-15T00:50:20;15.43;;;8.40;;
65759;SDS011;52496;51.082;5.066;2023-04-15T00:52:51;12.30;;;8.20;;
65759;SDS011;52496;51.082;5.066;2023-04-15T00:55:22;15.30;;;8.90;;
65759;SDS011;52496;51.082;5.066;2023-04-15T00:57:52;16.33;;;7.03;;
65759;SDS011;52496;51.082;5.066;2023-04-15T01:00:24;14.32;;;8.00;;
65759;SDS011;52496;51.082;5.066;2023-04-15T01:02:54;13.68;;;8.52;;
65759;SDS011;52496;51.082;5.066;2023-04-15T01:05:25;10.20;;;6.45;;
65759;SDS011;52496;51.082;5.066;2023-04-15T01:07:56;13.30;;;8.50;;
65759;SDS011;52496;51.082;5.066;2023-04-15T01:10:27;10.60;;;6.40;;
65759;SDS011;52496;51.082;5.066;2023-04-15T01:12:57;9.45;;;5.93;;
65759;SDS011;52496;51.082;5.066;2023-04-15T01:15:28;14.93;;;7.57;;
65759;SDS011;52496;51.082;5.066;2023-04-15T01:17:58;12.25;;;6.82;;
65759;SDS011;52496;51.082;5.066;2023-04-15T01:20:29;12.55;;;7.50;;
65759;SDS011;52496;51.082;5.066;2023-04-15T01:23:00;14.40;;;8.85;;
65759;SDS011;52496;51.082;5.066;2023-04-15T01:25:32;11.80;;;7.32;;
65759;SDS011;52496;51.082;5.066;2023-04-15T01:28:03;15.07;;;7.75;;
65759;SDS011;52496;51.082;5.066;2023-04-15T01:30:34;13.48;;;7.75;;
65759;SDS011;52496;51.082;5.066;2023-04-15T01:33:05;13.95;;;8.02;;
65759;SDS011;52496;51.082;5.066;2023-04-15T01:35:35;12.75;;;8.63;;
65759;SDS011;52496;51.082;5.066;2023-04-15T01:38:07;11.63;;;8.63;;
65759;SDS011;52496;51.082;5.066;2023-04-15T01:40:38;14.43;;;8.27;;
65759;SDS011;52496;51.082;5.066;2023-04-15T01:43:10;15.85;;;7.75;;
65759;SDS011;52496;51.082;5.066;2023-04-15T01:45:40;14.52;;;8.05;;
65759;SDS011;52496;51.082;5.066;2023-04-15T01:48:11;12.02;;;7.18;;
65759;SDS011;52496;51.082;5.066;2023-04-15T01:50:42;13.30;;;7.60;;
65759;SDS011;52496;51.082;5.066;2023-04-15T01:53:14;12.40;;;7.93;;
65759;SDS011;52496;51.082;5.066;2023-04-15T01:55:44;10.75;;;6.75;;
65759;SDS011;52496;51.082;5.066;2023-04-15T01:58:16;16.42;;;6.20;;
65759;SDS011;52496;51.082;5.066;2023-04-15T02:00:47;13.30;;;7.43;;
65759;SDS011;52496;51.082;5.066;2023-04-15T02:03:18;16.55;;;9.73;;
65759;SDS011;52496;51.082;5.066;2023-04-15T02:05:48;12.25;;;7.90;;
65759;SDS011;52496;51.082;5.066;2023-04-15T02:08:20;11.20;;;6.63;;
65759;SDS011;52496;51.082;5.066;2023-04-15T02:10:50;14.55;;;7.40;;
65759;SDS011;52496;51.082;5.066;2023-04-15T02:13:21;10.23;;;6.43;;
65759;SDS011;52496;51.082;5.066;2023-04-15T02:15:53;14.27;;;8.30;;
65759;SDS011;52496;51.082;5.066;2023-04-15T02:18:24;14.90;;;6.95;;
65759;SDS011;52496;51.082;5.066;2023-04-15T02:20:54;14.77;;;6.90;;
65759;SDS011;52496;51.082;5.066;2023-04-15T02:23:27;10.80;;;6.70;;
65759;SDS011;52496;51.082;5.066;2023-04-15T02:25:58;14.18;;;8.48;;
65759;SDS011;52496;51.082;5.066;2023-04-15T02:28:28;12.75;;;7.32;;
65759;SDS011;52496;51.082;5.066;2023-04-15T02:30:59;12.00;;;7.50;;
65759;SDS011;52496;51.082;5.066;2023-04-15T02:33:31;11.15;;;6.95;;
65759;SDS011;52496;51.082;5.066;2023-04-15T02:36:02;11.50;;;7.20;;
65759;SDS011;52496;51.082;5.066;2023-04-15T02:38:32;10.90;;;5.75;;
65759;SDS011;52496;51.082;5.066;2023-04-15T02:41:03;11.93;;;6.15;;
65759;SDS011;52496;51.082;5.066;2023-04-15T02:43:33;12.55;;;6.10;;
65759;SDS011;52496;51.082;5.066;2023-04-15T02:46:04;9.93;;;5.75;;
65759;SDS011;52496;51.082;5.066;2023-04-15T02:48:36;12.82;;;6.93;;
65759;SDS011;52496;51.082;5.066;2023-04-15T02:51:18;15.80;;;6.57;;
65759;SDS011;52496;51.082;5.066;2023-04-15T02:53:51;16.02;;;7.60;;
65759;SDS011;52496;51.082;5.066;2023-04-15T02:56:23;14.23;;;6.63;;
65759;SDS011;52496;51.082;5.066;2023-04-15T02:58:53;11.48;;;6.28;;
65759;SDS011;52496;51.082;5.066;2023-04-15T03:01:26;11.65;;;5.93;;
65759;SDS011;52496;51.082;5.066;2023-04-15T03:03:56;11.00;;;6.10;;
65759;SDS011;52496;51.082;5.066;2023-04-15T03:06:30;11.13;;;4.97;;
65759;SDS011;52496;51.082;5.066;2023-04-15T03:09:01;9.90;;;5.05;;
65759;SDS011;52496;51.082;5.066;2023-04-15T03:11:31;8.68;;;4.60;;
65759;SDS011;52496;51.082;5.066;2023-04-15T03:14:01;9.10;;;4.43;;
65759;SDS011;52496;51.082;5.066;2023-04-15T03:16:32;9.90;;;4.93;;
65759;SDS011;52496;51.082;5.066;2023-04-15T03:19:03;9.68;;;4.68;;
65759;SDS011;52496;51.082;5.066;2023-04-15T03:21:33;9.95;;;5.20;;
65759;SDS011;52496;51.082;5.066;2023-04-15T03:24:04;9.40;;;5.20;;
65759;SDS011;52496;51.082;5.066;2023-04-15T03:26:35;10.02;;;4.65;;
65759;SDS011;52496;51.082;5.066;2023-04-15T03:29:06;9.45;;;5.00;;
65759;SDS011;52496;51.082;5.066;2023-04-15T03:31:36;11.85;;;5.20;;
65759;SDS011;52496;51.082;5.066;2023-04-15T03:34:07;10.07;;;5.10;;
65759;SDS011;52496;51.082;5.066;2023-04-15T03:36:37;7.95;;;4.88;;
65759;SDS011;52496;51.082;5.066;2023-04-15T03:39:08;10.48;;;4.70;;
65759;SDS011;52496;51.082;5.066;2023-04-15T03:41:38;8.55;;;4.80;;
65759;SDS011;52496;51.082;5.066;2023-04-15T03:44:10;8.45;;;4.50;;
65759;SDS011;52496;51.082;5.066;2023-04-15T03:46:41;12.85;;;5.05;;
65759;SDS011;52496;51.082;5.066;2023-04-15T03:49:12;8.38;;;5.03;;
65759;SDS011;52496;51.082;5.066;2023-04-15T03:51:43;13.10;;;5.32;;
65759;SDS011;52496;51.082;5.066;2023-04-15T03:54:13;10.07;;;5.43;;
65759;SDS011;52496;51.082;5.066;2023-04-15T03:56:44;8.18;;;5.07;;
65759;SDS011;52496;51.082;5.066;2023-04-15T03:59:14;10.43;;;5.43;;
65759;SDS011;52496;51.082;5.066;2023-04-15T04:01:45;10.57;;;5.65;;
65759;SDS011;52496;51.082;5.066;2023-04-15T04:04:15;11.13;;;5.82;;
65759;SDS011;52496;51.082;5.066;2023-04-15T04:06:46;11.57;;;5.13;;
65759;SDS011;52496;51.082;5.066;2023-04-15T04:09:17;12.57;;;5.85;;
65759;SDS011;52496;51.082;5.066;2023-04-15T04:11:48;9.32;;;5.75;;
65759;SDS011;52496;51.082;5.066;2023-04-15T04:14:18;15.90;;;6.85;;
65759;SDS011;52496;51.082;5.066;2023-04-15T04:16:49;12.73;;;6.43;;
65759;SDS011;52496;51.082;5.066;2023-04-15T04:19:20;13.75;;;6.53;;
65759;SDS011;52496;51.082;5.066;2023-04-15T04:21:50;12.57;;;6.90;;
65759;SDS011;52496;51.082;5.066;2023-04-15T04:24:21;12.32;;;7.38;;
65759;SDS011;52496;51.082;5.066;2023-04-15T04:26:52;10.65;;;6.10;;
65759;SDS011;52496;51.082;5.066;2023-04-15T04:29:22;13.43;;;6.60;;
65759;SDS011;52496;51.082;5.066;2023-04-15T04:31:53;12.57;;;7.50;;
65759;SDS011;52496;51.082;5.066;2023-04-15T04:34:24;12.98;;;6.95;;
65759;SDS011;52496;51.082;5.066;2023-04-15T04:36:54;16.77;;;6.63;;
65759;SDS011;52496;51.082;5.066;2023-04-15T04:39:25;15.70;;;7.78;;
65759;SDS011;52496;51.082;5.066;2023-04-15T04:41:56;11.15;;;7.30;;
65759;SDS011;52496;51.082;5.066;2023-04-15T04:44:26;16.38;;;7.55;;
65759;SDS011;52496;51.082;5.066;2023-04-15T04:46:57;14.55;;;7.65;;
65759;SDS011;52496;51.082;5.066;2023-04-15T04:49:27;13.25;;;7.28;;
65759;SDS011;52496;51.082;5.066;2023-04-15T04:51:58;13.82;;;7.32;;
65759;SDS011;52496;51.082;5.066;2023-04-15T04:54:29;13.50;;;7.10;;
65759;SDS011;52496;51.082;5.066;2023-04-15T04:57:00;14.52;;;7.00;;
65759;SDS011;52496;51.082;5.066;2023-04-15T04:59:32;16.48;;;7.68;;
65759;SDS011;52496;51.082;5.066;2023-04-15T05:02:02;16.17;;;8.70;;
65759;SDS011;52496;51.082;5.066;2023-04-15T05:04:33;11.30;;;7.68;;
65759;SDS011;52496;51.082;5.066;2023-04-15T05:07:03;13.75;;;7.40;;
65759;SDS011;52496;51.082;5.066;2023-04-15T05:09:34;12.50;;;7.05;;
65759;SDS011;52496;51.082;5.066;2023-04-15T05:12:05;10.55;;;6.65;;
65759;SDS011;52496;51.082;5.066;2023-04-15T05:14:37;14.60;;;7.00;;
65759;SDS011;52496;51.082;5.066;2023-04-15T05:17:08;11.50;;;6.75;;
65759;SDS011;52496;51.082;5.066;2023-04-15T05:19:40;14.40;;;7.32;;
65759;SDS011;52496;51.082;5.066;2023-04-15T05:22:10;11.32;;;6.50;;
65759;SDS011;52496;51.082;5.066;2023-04-15T05:24:41;15.70;;;6.47;;
65759;SDS011;52496;51.082;5.066;2023-04-15T05:27:12;12.65;;;7.55;;
65759;SDS011;52496;51.082;5.066;2023-04-15T05:29:43;11.32;;;6.75;;
65759;SDS011;52496;51.082;5.066;2023-04-15T05:32:13;13.27;;;7.50;;
65759;SDS011;52496;51.082;5.066;2023-04-15T05:34:44;21.58;;;7.50;;
65759;SDS011;52496;51.082;5.066;2023-04-15T05:37:14;11.00;;;7.03;;
65759;SDS011;52496;51.082;5.066;2023-04-15T05:39:45;12.90;;;7.50;;
65759;SDS011;52496;51.082;5.066;2023-04-15T05:42:16;11.55;;;6.97;;
65759;SDS011;52496;51.082;5.066;2023-04-15T05:44:46;13.40;;;7.47;;
65759;SDS011;52496;51.082;5.066;2023-04-15T05:47:16;18.40;;;8.30;;
65759;SDS011;52496;51.082;5.066;2023-04-15T05:49:47;11.13;;;6.95;;
65759;SDS011;52496;51.082;5.066;2023-04-15T05:52:17;14.10;;;7.65;;
65759;SDS011;52496;51.082;5.066;2023-04-15T05:54:48;10.60;;;7.25;;
65759;SDS011;52496;51.082;5.066;2023-04-15T05:57:18;14.52;;;7.43;;
65759;SDS011;52496;51.082;5.066;2023-04-15T05:59:49;16.30;;;7.88;;
65759;SDS011;52496;51.082;5.066;2023-04-15T06:02:21;19.52;;;8.20;;
65759;SDS011;52496;51.082;5.066;2023-04-15T06:04:52;14.73;;;7.45;;
65759;SDS011;52496;51.082;5.066;2023-04-15T06:07:22;17.63;;;8.32;;
65759;SDS011;52496;51.082;5.066;2023-04-15T06:09:53;15.18;;;7.68;;
65759;SDS011;52496;51.082;5.066;2023-04-15T06:12:23;13.18;;;8.13;;
65759;SDS011;52496;51.082;5.066;2023-04-15T06:14:54;16.88;;;8.85;;
65759;SDS011;52496;51.082;5.066;2023-04-15T06:17:25;14.73;;;8.23;;
65759;SDS011;52496;51.082;5.066;2023-04-15T06:19:56;15.27;;;9.25;;
65759;SDS011;52496;51.082;5.066;2023-04-15T06:22:26;14.70;;;10.35;;
65759;SDS011;52496;51.082;5.066;2023-04-15T06:24:57;15.15;;;9.90;;
65759;SDS011;52496;51.082;5.066;2023-04-15T06:27:27;13.63;;;9.05;;
65759;SDS011;52496;51.082;5.066;2023-04-15T06:29:58;15.38;;;9.70;;
65759;SDS011;52496;51.082;5.066;2023-04-15T06:32:29;17.25;;;9.20;;
65759;SDS011;52496;51.082;5.066;2023-04-15T06:34:59;17.25;;;9.98;;
65759;SDS011;52496;51.082;5.066;2023-04-15T06:37:30;19.27;;;10.05;;
65759;SDS011;52496;51.082;5.066;2023-04-15T06:40:01;20.88;;;10.98;;
65759;SDS011;52496;51.082;5.066;2023-04-15T06:42:34;17.35;;;10.07;;
65759;SDS011;52496;51.082;5.066;2023-04-15T06:45:06;16.95;;;10.95;;
65759;SDS011;52496;51.082;5.066;2023-04-15T06:47:37;19.02;;;10.70;;
65759;SDS011;52496;51.082;5.066;2023-04-15T06:50:08;20.08;;;11.05;;
65759;SDS011;52496;51.082;5.066;2023-04-15T06:52:39;18.35;;;11.45;;
65759;SDS011;52496;51.082;5.066;2023-04-15T06:55:10;20.10;;;11.93;;
65759;SDS011;52496;51.082;5.066;2023-04-15T06:57:40;16.05;;;11.25;;
65759;SDS011;52496;51.082;5.066;2023-04-15T07:00:11;18.20;;;12.80;;
65759;SDS011;52496;51.082;5.066;2023-04-15T07:02:43;18.38;;;11.32;;
65759;SDS011;52496;51.082;5.066;2023-04-15T07:05:14;17.45;;;11.65;;
65759;SDS011;52496;51.082;5.066;2023-04-15T07:07:44;20.77;;;10.70;;
65759;SDS011;52496;51.082;5.066;2023-04-15T07:10:15;16.60;;;11.32;;
65759;SDS011;52496;51.082;5.066;2023-04-15T07:12:46;16.65;;;10.50;;
65759;SDS011;52496;51.082;5.066;2023-04-15T07:15:18;14.20;;;10.07;;
65759;SDS011;52496;51.082;5.066;2023-04-15T07:17:49;21.90;;;11.50;;
65759;SDS011;52496;51.082;5.066;2023-04-15T07:20:20;15.30;;;9.63;;
65759;SDS011;52496;51.082;5.066;2023-04-15T07:22:51;15.35;;;10.25;;
65759;SDS011;52496;51.082;5.066;2023-04-15T07:25:22;17.77;;;9.50;;
65759;SDS011;52496;51.082;5.066;2023-04-15T07:27:52;17.15;;;9.20;;
65759;SDS011;52496;51.082;5.066;2023-04-15T07:30:23;16.45;;;9.75;;
65759;SDS011;52496;51.082;5.066;2023-04-15T07:32:54;14.95;;;9.77;;
65759;SDS011;52496;51.082;5.066;2023-04-15T07:35:25;18.52;;;10.10;;
65759;SDS011;52496;51.082;5.066;2023-04-15T07:37:55;14.75;;;8.98;;
65759;SDS011;52496;51.082;5.066;2023-04-15T07:40:26;17.00;;;10.18;;
65759;SDS011;52496;51.082;5.066;2023-04-15T07:42:57;12.52;;;8.52;;
65759;SDS011;52496;51.082;5.066;2023-04-15T07:45:28;15.55;;;9.85;;
65759;SDS011;52496;51.082;5.066;2023-04-15T07:47:58;15.77;;;9.35;;
65759;SDS011;52496;51.082;5.066;2023-04-15T07:50:29;12.80;;;8.20;;
65759;SDS011;52496;51.082;5.066;2023-04-15T07:53:00;16.50;;;9.18;;
65759;SDS011;52496;51.082;5.066;2023-04-15T07:55:31;15.48;;;9.10;;
65759;SDS011;52496;51.082;5.066;2023-04-15T07:58:01;18.55;;;9.02;;
65759;SDS011;52496;51.082;5.066;2023-04-15T08:00:32;16.77;;;8.85;;
65759;SDS011;52496;51.082;5.066;2023-04-15T08:03:03;14.43;;;8.55;;
65759;SDS011;52496;51.082;5.066;2023-04-15T08:05:34;15.18;;;9.32;;
65759;SDS011;52496;51.082;5.066;2023-04-15T08:08:04;22.38;;;8.77;;
65759;SDS011;52496;51.082;5.066;2023-04-15T08:10:35;18.65;;;9.07;;
65759;SDS011;52496;51.082;5.066;2023-04-15T08:13:06;14.20;;;7.47;;
65759;SDS011;52496;51.082;5.066;2023-04-15T08:15:37;13.75;;;7.57;;
65759;SDS011;52496;51.082;5.066;2023-04-15T08:18:07;10.93;;;7.32;;
65759;SDS011;52496;51.082;5.066;2023-04-15T08:20:38;15.60;;;8.20;;
65759;SDS011;52496;51.082;5.066;2023-04-15T08:23:09;13.25;;;8.25;;
65759;SDS011;52496;51.082;5.066;2023-04-15T08:25:40;11.90;;;7.82;;
65759;SDS011;52496;51.082;5.066;2023-04-15T08:28:11;12.38;;;7.43;;
65759;SDS011;52496;51.082;5.066;2023-04-15T08:30:42;10.55;;;7.28;;
65759;SDS011;52496;51.082;5.066;2023-04-15T08:33:12;10.45;;;6.60;;
65759;SDS011;52496;51.082;5.066;2023-04-15T08:35:43;11.07;;;7.03;;
65759;SDS011;52496;51.082;5.066;2023-04-15T08:38:14;12.20;;;6.63;;
65759;SDS011;52496;51.082;5.066;2023-04-15T08:40:44;12.35;;;7.63;;
65759;SDS011;52496;51.082;5.066;2023-04-15T08:43:22;15.98;;;7.90;;
65759;SDS011;52496;51.082;5.066;2023-04-15T08:45:55;11.57;;;6.55;;
65759;SDS011;52496;51.082;5.066;2023-04-15T08:48:31;9.80;;;5.88;;
65759;SDS011;52496;51.082;5.066;2023-04-15T08:51:03;12.30;;;5.70;;
65759;SDS011;52496;51.082;5.066;2023-04-15T08:53:34;7.95;;;5.45;;
65759;SDS011;52496;51.082;5.066;2023-04-15T08:56:06;10.98;;;6.35;;
65759;SDS011;52496;51.082;5.066;2023-04-15T08:58:42;8.55;;;5.65;;
65759;SDS011;52496;51.082;5.066;2023-04-15T09:01:14;11.80;;;6.47;;
65759;SDS011;52496;51.082;5.066;2023-04-15T09:03:47;9.85;;;5.60;;
65759;SDS011;52496;51.082;5.066;2023-04-15T09:06:19;11.40;;;6.35;;
65759;SDS011;52496;51.082;5.066;2023-04-15T09:08:51;11.27;;;5.88;;
65759;SDS011;52496;51.082;5.066;2023-04-15T09:11:22;8.23;;;5.75;;
65759;SDS011;52496;51.082;5.066;2023-04-15T09:13:52;9.60;;;5.70;;
65759;SDS011;52496;51.082;5.066;2023-04-15T09:16:23;10.82;;;5.82;;
65759;SDS011;52496;51.082;5.066;2023-04-15T09:18:53;11.10;;;6.28;;
65759;SDS011;52496;51.082;5.066;2023-04-15T09:21:24;8.85;;;4.97;;
65759;SDS011;52496;51.082;5.066;2023-04-15T09:23:58;9.50;;;6.05;;
65759;SDS011;52496;51.082;5.066;2023-04-15T09:26:31;8.25;;;4.80;;
65759;SDS011;52496;51.082;5.066;2023-04-15T09:29:06;8.07;;;5.15;;
65759;SDS011;52496;51.082;5.066;2023-04-15T09:31:43;8.00;;;4.60;;
65759;SDS011;52496;51.082;5.066;2023-04-15T09:34:13;8.80;;;5.38;;
65759;SDS011;52496;51.082;5.066;2023-04-15T09:39:19;11.55;;;4.78;;
65759;SDS011;52496;51.082;5.066;2023-04-15T09:42:03;9.88;;;5.20;;
65759;SDS011;52496;51.082;5.066;2023-04-15T09:44:37;7.82;;;4.55;;
65759;SDS011;52496;51.082;5.066;2023-04-15T09:47:08;8.07;;;4.88;;
65759;SDS011;52496;51.082;5.066;2023-04-15T09:49:38;9.48;;;5.20;;
65759;SDS011;52496;51.082;5.066;2023-04-15T09:52:25;11.95;;;5.70;;
65759;SDS011;52496;51.082;5.066;2023-04-15T09:54:57;10.55;;;5.35;;
65759;SDS011;52496;51.082;5.066;2023-04-15T09:57:33;7.95;;;4.28;;
65759;SDS011;52496;51.082;5.066;2023-04-15T10:00:06;7.75;;;4.57;;
65759;SDS011;52496;51.082;5.066;2023-04-15T10:02:38;8.05;;;4.25;;
65759;SDS011;52496;51.082;5.066;2023-04-15T10:05:13;6.85;;;3.55;;
65759;SDS011;52496;51.082;5.066;2023-04-15T10:07:46;7.65;;;3.80;;
65759;SDS011;52496;51.082;5.066;2023-04-15T10:10:17;7.57;;;4.75;;
65759;SDS011;52496;51.082;5.066;2023-04-15T10:12:48;6.53;;;4.05;;
65759;SDS011;52496;51.082;5.066;2023-04-15T10:15:21;7.10;;;4.00;;
65759;SDS011;52496;51.082;5.066;2023-04-15T10:17:53;8.48;;;4.00;;
65759;SDS011;52496;51.082;5.066;2023-04-15T10:20:26;6.60;;;3.78;;
65759;SDS011;52496;51.082;5.066;2023-04-15T10:22:59;6.55;;;3.92;;
65759;SDS011;52496;51.082;5.066;2023-04-15T10:25:31;7.03;;;4.10;;
65759;SDS011;52496;51.082;5.066;2023-04-15T10:28:02;8.32;;;4.13;;
65759;SDS011;52496;51.082;5.066;2023-04-15T10:30:35;8.10;;;4.28;;
65759;SDS011;52496;51.082;5.066;2023-04-15T10:33:06;9.45;;;4.40;;
65759;SDS011;52496;51.082;5.066;2023-04-15T10:35:39;6.97;;;4.00;;
65759;SDS011;52496;51.082;5.066;2023-04-15T10:43:56;4.70;;;2.80;;
65759;SDS011;52496;51.082;5.066;2023-04-15T10:46:34;4.40;;;2.78;;
65759;SDS011;52496;51.082;5.066;2023-04-15T10:51:42;5.95;;;2.83;;
65759;SDS011;52496;51.082;5.066;2023-04-15T10:59:32;8.13;;;3.35;;
65759;SDS011;52496;51.082;5.066;2023-04-15T11:02:05;5.40;;;2.90;;
65759;SDS011;52496;51.082;5.066;2023-04-15T11:12:47;4.97;;;2.67;;
65759;SDS011;52496;51.082;5.066;2023-04-15T11:18:08;4.07;;;2.10;;
65759;SDS011;52496;51.082;5.066;2023-04-15T11:20:59;3.33;;;2.10;;
65759;SDS011;52496;51.082;5.066;2023-04-15T11:23:35;4.43;;;2.40;;
65759;SDS011;52496;51.082;5.066;2023-04-15T11:26:08;6.22;;;3.20;;
65759;SDS011;52496;51.082;5.066;2023-04-15T11:28:42;4.72;;;2.83;;
65759;SDS011;52496;51.082;5.066;2023-04-15T11:31:15;5.38;;;2.60;;
65759;SDS011;52496;51.082;5.066;2023-04-15T11:33:59;4.97;;;2.55;;
65759;SDS011;52496;51.082;5.066;2023-04-15T11:36:31;6.65;;;2.70;;
65759;SDS011;52496;51.082;5.066;2023-04-15T11:39:02;5.18;;;2.80;;
65759;SDS011;52496;51.082;5.066;2023-04-15T11:41:36;5.50;;;3.13;;
65759;SDS011;52496;51.082;5.066;2023-04-15T11:44:15;8.23;;;3.80;;
65759;SDS011;52496;51.082;5.066;2023-04-15T11:46:46;7.55;;;3.65;;
65759;SDS011;52496;51.082;5.066;2023-04-15T11:49:27;5.10;;;2.75;;
65759;SDS011;52496;51.082;5.066;2023-04-15T11:51:59;3.97;;;2.25;;
65759;SDS011;52496;51.082;5.066;2023-04-15T11:54:30;11.23;;;2.25;;
65759;SDS011;52496;51.082;5.066;2023-04-15T11:57:01;3.40;;;1.95;;
65759;SDS011;52496;51.082;5.066;2023-04-15T11:59:41;3.38;;;2.00;;
65759;SDS011;52496;51.082;5.066;2023-04-15T12:02:12;3.38;;;1.77;;
65759;SDS011;52496;51.082;5.066;2023-04-15T12:04:43;3.60;;;2.05;;
65759;SDS011;52496;51.082;5.066;2023-04-15T12:07:15;3.13;;;1.92;;
65759;SDS011;52496;51.082;5.066;2023-04-15T12:09:53;6.13;;;2.20;;
65759;SDS011;52496;51.082;5.066;2023-04-15T12:12:26;4.10;;;1.90;;
65759;SDS011;52496;51.082;5.066;2023-04-15T12:14:57;3.40;;;2.10;;
65759;SDS011;52496;51.082;5.066;2023-04-15T12:17:28;8.15;;;2.40;;
65759;SDS011;52496;51.082;5.066;2023-04-15T12:19:59;4.53;;;2.20;;
65759;SDS011;52496;51.082;5.066;2023-04-15T12:22:30;4.20;;;2.20;;
65759;SDS011;52496;51.082;5.066;2023-04-15T12:25:07;5.53;;;2.58;;
65759;SDS011;52496;51.082;5.066;2023-04-15T12:27:38;5.22;;;2.40;;
65759;SDS011;52496;51.082;5.066;2023-04-15T12:30:08;5.78;;;2.58;;
65759;SDS011;52496;51.082;5.066;2023-04-15T12:32:40;5.22;;;2.50;;
65759;SDS011;52496;51.082;5.066;2023-04-15T12:35:11;6.28;;;2.97;;
65759;SDS011;52496;51.082;5.066;2023-04-15T12:37:42;6.18;;;2.97;;
65759;SDS011;52496;51.082;5.066;2023-04-15T12:40:13;5.95;;;2.63;;
65759;SDS011;52496;51.082;5.066;2023-04-15T12:42:43;4.72;;;2.47;;
65759;SDS011;52496;51.082;5.066;2023-04-15T12:45:14;5.10;;;2.60;;
65759;SDS011;52496;51.082;5.066;2023-04-15T12:47:44;5.57;;;2.53;;
65759;SDS011;52496;51.082;5.066;2023-04-15T12:50:15;4.13;;;2.13;;
65759;SDS011;52496;51.082;5.066;2023-04-15T12:52:48;4.25;;;2.42;;
65759;SDS011;52496;51.082;5.066;2023-04-15T12:55:18;5.07;;;2.13;;
65759;SDS011;52496;51.082;5.066;2023-04-15T12:57:49;4.70;;;2.30;;
65759;SDS011;52496;51.082;5.066;2023-04-15T13:00:22;6.47;;;2.08;;
65759;SDS011;52496;51.082;5.066;2023-04-15T13:02:53;3.05;;;2.00;;
65759;SDS011;52496;51.082;5.066;2023-04-15T13:05:23;5.32;;;2.10;;
65759;SDS011;52496;51.082;5.066;2023-04-15T13:07:54;3.78;;;2.03;;
65759;SDS011;52496;51.082;5.066;2023-04-15T13:10:25;4.55;;;2.00;;
65759;SDS011;52496;51.082;5.066;2023-04-15T13:12:57;5.28;;;2.30;;
65759;SDS011;52496;51.082;5.066;2023-04-15T13:15:28;5.22;;;2.40;;
65759;SDS011;52496;51.082;5.066;2023-04-15T13:17:59;3.63;;;1.98;;
65759;SDS011;52496;51.082;5.066;2023-04-15T13:20:32;4.93;;;2.60;;
65759;SDS011;52496;51.082;5.066;2023-04-15T13:23:03;5.38;;;2.33;;
65759;SDS011;52496;51.082;5.066;2023-04-15T13:25:33;4.25;;;2.22;;
65759;SDS011;52496;51.082;5.066;2023-04-15T13:28:04;6.65;;;2.50;;
65759;SDS011;52496;51.082;5.066;2023-04-15T13:30:36;3.60;;;2.05;;
65759;SDS011;52496;51.082;5.066;2023-04-15T13:33:07;4.03;;;2.03;;
65759;SDS011;52496;51.082;5.066;2023-04-15T13:35:38;5.05;;;2.53;;
65759;SDS011;52496;51.082;5.066;2023-04-15T13:38:10;4.40;;;2.20;;
65759;SDS011;52496;51.082;5.066;2023-04-15T13:40:40;4.10;;;2.40;;
65759;SDS011;52496;51.082;5.066;2023-04-15T13:43:11;4.53;;;2.38;;
65759;SDS011;52496;51.082;5.066;2023-04-15T13:45:41;6.18;;;2.55;;
65759;SDS011;52496;51.082;5.066;2023-04-15T13:48:12;4.88;;;2.25;;
65759;SDS011;52496;51.082;5.066;2023-04-15T13:50:43;5.28;;;2.22;;
65759;SDS011;52496;51.082;5.066;2023-04-15T13:53:14;7.28;;;2.22;;
65759;SDS011;52496;51.082;5.066;2023-04-15T13:55:45;4.13;;;2.40;;
65759;SDS011;52496;51.082;5.066;2023-04-15T13:58:15;3.70;;;1.83;;
65759;SDS011;52496;51.082;5.066;2023-04-15T14:00:46;3.63;;;2.15;;
65759;SDS011;52496;51.082;5.066;2023-04-15T14:03:16;6.00;;;2.40;;
65759;SDS011;52496;51.082;5.066;2023-04-15T14:05:47;6.05;;;2.70;;
65759;SDS011;52496;51.082;5.066;2023-04-15T14:08:22;4.03;;;2.08;;
65759;SDS011;52496;51.082;5.066;2023-04-15T14:10:53;4.57;;;2.67;;
65759;SDS011;52496;51.082;5.066;2023-04-15T14:13:24;4.95;;;2.63;;
65759;SDS011;52496;51.082;5.066;2023-04-15T14:15:55;7.15;;;2.38;;
65759;SDS011;52496;51.082;5.066;2023-04-15T14:18:26;5.10;;;2.55;;
65759;SDS011;52496;51.082;5.066;2023-04-15T14:20:56;5.07;;;2.50;;
65759;SDS011;52496;51.082;5.066;2023-04-15T14:23:27;4.43;;;2.00;;
65759;SDS011;52496;51.082;5.066;2023-04-15T14:25:57;6.90;;;2.60;;
65759;SDS011;52496;51.082;5.066;2023-04-15T14:28:28;5.38;;;2.10;;
65759;SDS011;52496;51.082;5.066;2023-04-15T14:30:58;3.97;;;2.10;;
65759;SDS011;52496;51.082;5.066;2023-04-15T14:33:29;4.45;;;2.50;;
65759;SDS011;52496;51.082;5.066;2023-04-15T14:36:01;7.10;;;3.78;;
65759;SDS011;52496;51.082;5.066;2023-04-15T14:38:35;5.35;;;2.80;;
65759;SDS011;52496;51.082;5.066;2023-04-15T14:41:07;5.50;;;2.70;;
65759;SDS011;52496;51.082;5.066;2023-04-15T14:43:38;4.80;;;2.97;;
65759;SDS011;52496;51.082;5.066;2023-04-15T14:46:09;4.82;;;2.90;;
65759;SDS011;52496;51.082;5.066;2023-04-15T14:48:40;5.03;;;2.60;;
65759;SDS011;52496;51.082;5.066;2023-04-15T14:51:11;5.43;;;2.60;;
65759;SDS011;52496;51.082;5.066;2023-04-15T14:53:42;4.95;;;2.80;;
65759;SDS011;52496;51.082;5.066;2023-04-15T14:56:13;5.07;;;2.70;;
65759;SDS011;52496;51.082;5.066;2023-04-15T14:58:43;5.13;;;2.60;;
65759;SDS011;52496;51.082;5.066;2023-04-15T15:01:14;4.72;;;2.90;;
65759;SDS011;52496;51.082;5.066;2023-04-15T15:03:44;6.28;;;2.80;;
65759;SDS011;52496;51.082;5.066;2023-04-15T15:06:15;3.92;;;2.50;;
65759;SDS011;52496;51.082;5.066;2023-04-15T15:08:45;6.10;;;2.95;;
65759;SDS011;52496;51.082;5.066;2023-04-15T15:11:17;5.15;;;2.38;;
65759;SDS011;52496;51.082;5.066;2023-04-15T15:13:48;6.20;;;2.85;;
65759;SDS011;52496;51.082;5.066;2023-04-15T15:16:18;5.25;;;2.30;;
65759;SDS011;52496;51.082;5.066;2023-04-15T15:18:49;4.88;;;2.60;;
65759;SDS011;52496;51.082;5.066;2023-04-15T15:21:20;4.35;;;2.20;;
65759;SDS011;52496;51.082;5.066;2023-04-15T15:23:52;3.50;;;2.17;;
65759;SDS011;52496;51.082;5.066;2023-04-15T15:26:23;5.65;;;2.50;;
65759;SDS011;52496;51.082;5.066;2023-04-15T15:28:53;4.68;;;2.35;;
65759;SDS011;52496;51.082;5.066;2023-04-15T15:31:24;7.55;;;2.10;;
65759;SDS011;52496;51.082;5.066;2023-04-15T15:33:55;5.30;;;2.20;;